sensor_id;sensor_type;location;lat;lon;timestamp;P1;durP1;ratioP1;P2;durP2;ratioP2
39452;SDS011;25154;-33.684;151.102;2022-12-18T00:00:39;1.00;;;0.50;;
39452;SDS011;25154;-33.684;151.102;2022-12-18T00:05:46;1.75;;;0.60;;
39452;SDS011;25154;-33.684;151.102;2022-12-18T00:10:49;3.28;;;1.10;;
39452;SDS011;25154;-33.684;151.102;2022-12-18T00:15:52;0.95;;;0.50;;
39452;SDS011;25154;-33.684;151.102;2022-12-18T00:20:57;1.13;;;0.45;;
39452;SDS011;25154;-33.684;151.102;2022-12-18T00:26:02;1.30;;;0.60;;
39452;SDS011;25154;-33.684;151.102;2022-12-18T00:31:17;2.35;;;0.52;;
39452;SDS011;25154;-33.684;151.102;2022-12-18T00:36:23;4.85;;;1.08;;
39452;SDS011;25154;-33.684;151.102;2022-12-18T00:41:27;0.77;;;0.65;;
39452;SDS011;25154;-33.684;151.102;2022-12-18T00:46:48;0.98;;;0.47;;
39452;SDS011;25154;-33.684;151.102;2022-12-18T00:51:51;0.90;;;0.52;;
39452;SDS011;25154;-33.684;151.102;2022-12-18T00:56:54;1.42;;;0.50;;
39452;SDS011;25154;-33.684;151.102;2022-12-18T01:01:57;2.30;;;0.93;;
39452;SDS011;25154;-33.684;151.102;2022-12-18T01:06:59;1.40;;;0.63;;
39452;SDS011;25154;-33.684;151.102;2022-12-18T01:12:02;1.60;;;0.60;;
39452;SDS011;25154;-33.684;151.102;2022-12-18T01:17:05;2.35;;;0.75;;
39452;SDS011;25154;-33.684;151.102;2022-12-18T01:22:08;0.85;;;0.30;;
39452;SDS011;25154;-33.684;151.102;2022-12-18T01:27:11;0.68;;;0.50;;
39452;SDS011;25154;-33.684;151.102;2022-12-18T01:32:13;2.10;;;0.63;;
39452;SDS011;25154;-33.684;151.102;2022-12-18T01:37:16;2.95;;;0.45;;
39452;SDS011;25154;-33.684;151.102;2022-12-18T01:42:19;0.63;;;0.40;;
39452;SDS011;25154;-33.684;151.102;2022-12-18T01:52:55;1.90;;;0.50;;
39452;SDS011;25154;-33.684;151.102;2022-12-18T01:58:06;1.08;;;0.55;;
39452;SDS011;25154;-33.684;151.102;2022-12-18T02:03:09;2.15;;;0.68;;
39452;SDS011;25154;-33.684;151.102;2022-12-18T02:18:28;3.78;;;0.57;;
39452;SDS011;25154;-33.684;151.102;2022-12-18T02:29:29;1.65;;;0.70;;
39452;SDS011;25154;-33.684;151.102;2022-12-18T02:34:34;4.85;;;1.20;;
39452;SDS011;25154;-33.684;151.102;2022-12-18T02:39:40;5.37;;;0.90;;
39452;SDS011;25154;-33.684;151.102;2022-12-18T02:44:47;4.93;;;1.35;;
39452;SDS011;25154;-33.684;151.102;2022-12-18T03:00:44;6.43;;;1.27;;
39452;SDS011;25154;-33.684;151.102;2022-12-18T03:05:53;5.28;;;1.13;;
39452;SDS011;25154;-33.684;151.102;2022-12-18T03:11:11;4.78;;;0.90;;
39452;SDS011;25154;-33.684;151.102;2022-12-18T03:16:25;5.57;;;1.17;;
39452;SDS011;25154;-33.684;151.102;2022-12-18T03:21:33;6.88;;;1.13;;
39452;SDS011;25154;-33.684;151.102;2022-12-18T03:26:46;5.50;;;1.15;;
39452;SDS011;25154;-33.684;151.102;2022-12-18T03:31:57;4.18;;;1.08;;
39452;SDS011;25154;-33.684;151.102;2022-12-18T03:37:06;3.78;;;1.05;;
39452;SDS011;25154;-33.684;151.102;2022-12-18T03:52:33;4.55;;;1.00;;
39452;SDS011;25154;-33.684;151.102;2022-12-18T03:57:39;2.60;;;0.80;;
39452;SDS011;25154;-33.684;151.102;2022-12-18T04:02:54;3.42;;;0.90;;
39452;SDS011;25154;-33.684;151.102;2022-12-18T04:07:57;3.05;;;0.85;;
39452;SDS011;25154;-33.684;151.102;2022-12-18T04:13:00;4.22;;;1.10;;
39452;SDS011;25154;-33.684;151.102;2022-12-18T04:18:02;2.63;;;0.90;;
39452;SDS011;25154;-33.684;151.102;2022-12-18T04:23:05;3.05;;;0.85;;
39452;SDS011;25154;-33.684;151.102;2022-12-18T04:28:07;2.30;;;1.08;;
39452;SDS011;25154;-33.684;151.102;2022-12-18T04:33:10;2.90;;;0.80;;
39452;SDS011;25154;-33.684;151.102;2022-12-18T04:38:14;4.13;;;1.00;;
39452;SDS011;25154;-33.684;151.102;2022-12-18T04:43:18;5.70;;;1.05;;
39452;SDS011;25154;-33.684;151.102;2022-12-18T04:48:21;4.10;;;0.93;;
39452;SDS011;25154;-33.684;151.102;2022-12-18T04:53:24;3.00;;;0.88;;
39452;SDS011;25154;-33.684;151.102;2022-12-18T04:58:26;3.33;;;0.95;;
39452;SDS011;25154;-33.684;151.102;2022-12-18T05:03:29;2.20;;;0.82;;
39452;SDS011;25154;-33.684;151.102;2022-12-18T05:08:32;3.97;;;1.00;;
39452;SDS011;25154;-33.684;151.102;2022-12-18T05:13:35;7.18;;;1.20;;
39452;SDS011;25154;-33.684;151.102;2022-12-18T05:18:38;3.10;;;1.00;;
39452;SDS011;25154;-33.684;151.102;2022-12-18T05:23:41;7.35;;;1.00;;
39452;SDS011;25154;-33.684;151.102;2022-12-18T05:28:44;3.08;;;1.00;;
39452;SDS011;25154;-33.684;151.102;2022-12-18T05:33:47;2.70;;;0.77;;
39452;SDS011;25154;-33.684;151.102;2022-12-18T05:38:50;3.00;;;0.60;;
39452;SDS011;25154;-33.684;151.102;2022-12-18T05:43:54;3.95;;;0.98;;
39452;SDS011;25154;-33.684;151.102;2022-12-18T05:49:00;3.53;;;1.02;;
39452;SDS011;25154;-33.684;151.102;2022-12-18T05:54:03;1.48;;;0.60;;
39452;SDS011;25154;-33.684;151.102;2022-12-18T05:59:06;5.80;;;0.90;;
39452;SDS011;25154;-33.684;151.102;2022-12-18T06:04:08;2.47;;;0.70;;
39452;SDS011;25154;-33.684;151.102;2022-12-18T06:09:11;3.10;;;0.80;;
39452;SDS011;25154;-33.684;151.102;2022-12-18T06:14:14;2.67;;;0.70;;
39452;SDS011;25154;-33.684;151.102;2022-12-18T06:19:17;4.60;;;0.80;;
39452;SDS011;25154;-33.684;151.102;2022-12-18T06:24:21;4.10;;;1.02;;
39452;SDS011;25154;-33.684;151.102;2022-12-18T06:29:24;3.22;;;0.85;;
39452;SDS011;25154;-33.684;151.102;2022-12-18T06:34:27;5.03;;;0.98;;
39452;SDS011;25154;-33.684;151.102;2022-12-18T06:39:30;4.15;;;1.10;;
39452;SDS011;25154;-33.684;151.102;2022-12-18T06:44:32;4.75;;;0.93;;
39452;SDS011;25154;-33.684;151.102;2022-12-18T06:49:35;3.58;;;1.00;;
39452;SDS011;25154;-33.684;151.102;2022-12-18T06:54:39;2.33;;;0.77;;
39452;SDS011;25154;-33.684;151.102;2022-12-18T06:59:43;2.13;;;0.77;;
39452;SDS011;25154;-33.684;151.102;2022-12-18T07:04:47;4.80;;;1.08;;
39452;SDS011;25154;-33.684;151.102;2022-12-18T07:09:51;3.17;;;0.77;;
39452;SDS011;25154;-33.684;151.102;2022-12-18T07:14:54;3.65;;;0.90;;
39452;SDS011;25154;-33.684;151.102;2022-12-18T07:19:56;6.18;;;1.30;;
39452;SDS011;25154;-33.684;151.102;2022-12-18T07:24:58;6.25;;;1.00;;
39452;SDS011;25154;-33.684;151.102;2022-12-18T07:30:01;1.65;;;0.40;;
39452;SDS011;25154;-33.684;151.102;2022-12-18T07:35:07;2.63;;;0.70;;
39452;SDS011;25154;-33.684;151.102;2022-12-18T07:40:11;3.08;;;1.00;;
39452;SDS011;25154;-33.684;151.102;2022-12-18T07:45:14;1.88;;;0.70;;
39452;SDS011;25154;-33.684;151.102;2022-12-18T07:50:17;4.40;;;0.80;;
39452;SDS011;25154;-33.684;151.102;2022-12-18T07:55:19;2.65;;;0.73;;
39452;SDS011;25154;-33.684;151.102;2022-12-18T08:00:22;4.13;;;0.75;;
39452;SDS011;25154;-33.684;151.102;2022-12-18T08:05:25;3.08;;;0.80;;
39452;SDS011;25154;-33.684;151.102;2022-12-18T08:10:28;3.03;;;0.85;;
39452;SDS011;25154;-33.684;151.102;2022-12-18T08:15:31;4.55;;;0.85;;
39452;SDS011;25154;-33.684;151.102;2022-12-18T08:20:34;3.47;;;0.82;;
39452;SDS011;25154;-33.684;151.102;2022-12-18T08:25:36;3.53;;;0.80;;
39452;SDS011;25154;-33.684;151.102;2022-12-18T08:30:41;2.42;;;0.70;;
39452;SDS011;25154;-33.684;151.102;2022-12-18T08:35:43;4.15;;;0.88;;
39452;SDS011;25154;-33.684;151.102;2022-12-18T08:40:45;4.35;;;0.95;;
39452;SDS011;25154;-33.684;151.102;2022-12-18T08:45:51;3.92;;;1.15;;
39452;SDS011;25154;-33.684;151.102;2022-12-18T08:50:57;5.10;;;1.17;;
39452;SDS011;25154;-33.684;151.102;2022-12-18T08:56:00;4.43;;;0.70;;
39452;SDS011;25154;-33.684;151.102;2022-12-18T09:01:03;4.15;;;0.80;;
39452;SDS011;25154;-33.684;151.102;2022-12-18T09:06:16;4.13;;;0.77;;
39452;SDS011;25154;-33.684;151.102;2022-12-18T09:11:28;2.30;;;0.80;;
39452;SDS011;25154;-33.684;151.102;2022-12-18T09:16:32;2.22;;;0.70;;
39452;SDS011;25154;-33.684;151.102;2022-12-18T09:21:47;5.28;;;0.70;;
39452;SDS011;25154;-33.684;151.102;2022-12-18T09:26:54;2.70;;;0.90;;
39452;SDS011;25154;-33.684;151.102;2022-12-18T09:31:58;2.30;;;0.52;;
39452;SDS011;25154;-33.684;151.102;2022-12-18T09:37:01;2.85;;;1.00;;
39452;SDS011;25154;-33.684;151.102;2022-12-18T09:42:04;5.60;;;0.80;;
39452;SDS011;25154;-33.684;151.102;2022-12-18T09:47:16;4.57;;;0.98;;
39452;SDS011;25154;-33.684;151.102;2022-12-18T09:57:39;6.10;;;0.70;;
39452;SDS011;25154;-33.684;151.102;2022-12-18T10:03:12;2.97;;;0.70;;
39452;SDS011;25154;-33.684;151.102;2022-12-18T10:08:29;2.33;;;0.60;;
39452;SDS011;25154;-33.684;151.102;2022-12-18T10:13:52;5.95;;;1.13;;
39452;SDS011;25154;-33.684;151.102;2022-12-18T10:29:49;3.65;;;0.93;;
39452;SDS011;25154;-33.684;151.102;2022-12-18T10:34:54;4.03;;;0.77;;
39452;SDS011;25154;-33.684;151.102;2022-12-18T10:40:09;5.23;;;1.47;;
39452;SDS011;25154;-33.684;151.102;2022-12-18T10:45:17;5.40;;;0.75;;
39452;SDS011;25154;-33.684;151.102;2022-12-18T10:50:29;2.30;;;1.20;;
39452;SDS011;25154;-33.684;151.102;2022-12-18T10:55:35;4.97;;;0.85;;
39452;SDS011;25154;-33.684;151.102;2022-12-18T11:00:40;2.25;;;0.80;;
39452;SDS011;25154;-33.684;151.102;2022-12-18T11:05:45;3.22;;;1.33;;
39452;SDS011;25154;-33.684;151.102;2022-12-18T11:10:47;6.43;;;1.90;;
39452;SDS011;25154;-33.684;151.102;2022-12-18T11:15:50;3.78;;;0.90;;
39452;SDS011;25154;-33.684;151.102;2022-12-18T11:20:56;6.35;;;0.93;;
39452;SDS011;25154;-33.684;151.102;2022-12-18T11:26:07;4.40;;;0.88;;
39452;SDS011;25154;-33.684;151.102;2022-12-18T11:36:18;2.70;;;0.80;;
39452;SDS011;25154;-33.684;151.102;2022-12-18T11:41:27;7.50;;;1.10;;
39452;SDS011;25154;-33.684;151.102;2022-12-18T11:47:03;3.63;;;1.00;;
39452;SDS011;25154;-33.684;151.102;2022-12-18T11:52:32;4.38;;;1.30;;
39452;SDS011;25154;-33.684;151.102;2022-12-18T12:03:06;4.40;;;0.82;;
39452;SDS011;25154;-33.684;151.102;2022-12-18T12:08:38;4.03;;;0.88;;
39452;SDS011;25154;-33.684;151.102;2022-12-18T12:34:55;3.20;;;0.85;;
39452;SDS011;25154;-33.684;151.102;2022-12-18T12:40:07;3.55;;;0.90;;
39452;SDS011;25154;-33.684;151.102;2022-12-18T12:45:25;9.07;;;1.98;;
39452;SDS011;25154;-33.684;151.102;2022-12-18T12:50:50;4.28;;;0.93;;
39452;SDS011;25154;-33.684;151.102;2022-12-18T12:55:53;1.27;;;0.63;;
39452;SDS011;25154;-33.684;151.102;2022-12-18T13:06:12;6.70;;;1.00;;
39452;SDS011;25154;-33.684;151.102;2022-12-18T13:11:30;8.52;;;1.05;;
39452;SDS011;25154;-33.684;151.102;2022-12-18T13:17:16;6.00;;;1.27;;
39452;SDS011;25154;-33.684;151.102;2022-12-18T13:22:37;5.05;;;1.15;;
39452;SDS011;25154;-33.684;151.102;2022-12-18T13:27:54;5.38;;;0.93;;
39452;SDS011;25154;-33.684;151.102;2022-12-18T13:43:40;4.22;;;1.02;;
39452;SDS011;25154;-33.684;151.102;2022-12-18T13:54:18;6.43;;;1.10;;
39452;SDS011;25154;-33.684;151.102;2022-12-18T13:59:35;8.00;;;1.05;;
39452;SDS011;25154;-33.684;151.102;2022-12-18T14:04:39;5.90;;;0.98;;
39452;SDS011;25154;-33.684;151.102;2022-12-18T14:10:00;7.75;;;2.55;;
39452;SDS011;25154;-33.684;151.102;2022-12-18T14:15:03;6.85;;;1.63;;
39452;SDS011;25154;-33.684;151.102;2022-12-18T14:20:18;9.98;;;1.60;;
39452;SDS011;25154;-33.684;151.102;2022-12-18T14:25:21;9.50;;;1.75;;
39452;SDS011;25154;-33.684;151.102;2022-12-18T14:35:33;6.82;;;1.83;;
39452;SDS011;25154;-33.684;151.102;2022-12-18T14:40:38;5.72;;;1.33;;
39452;SDS011;25154;-33.684;151.102;2022-12-18T14:45:43;14.65;;;1.77;;
39452;SDS011;25154;-33.684;151.102;2022-12-18T14:50:54;12.70;;;1.40;;
39452;SDS011;25154;-33.684;151.102;2022-12-18T14:56:12;11.05;;;1.73;;
39452;SDS011;25154;-33.684;151.102;2022-12-18T15:01:22;11.52;;;1.65;;
39452;SDS011;25154;-33.684;151.102;2022-12-18T15:06:30;14.02;;;2.20;;
39452;SDS011;25154;-33.684;151.102;2022-12-18T15:11:36;8.43;;;1.52;;
39452;SDS011;25154;-33.684;151.102;2022-12-18T15:16:51;5.57;;;1.15;;
39452;SDS011;25154;-33.684;151.102;2022-12-18T15:21:55;11.35;;;1.30;;
39452;SDS011;25154;-33.684;151.102;2022-12-18T15:26:58;13.15;;;1.67;;
39452;SDS011;25154;-33.684;151.102;2022-12-18T15:32:03;16.40;;;1.85;;
39452;SDS011;25154;-33.684;151.102;2022-12-18T15:37:07;11.65;;;2.10;;
39452;SDS011;25154;-33.684;151.102;2022-12-18T15:42:09;22.48;;;2.20;;
39452;SDS011;25154;-33.684;151.102;2022-12-18T15:47:30;18.40;;;1.65;;
39452;SDS011;25154;-33.684;151.102;2022-12-18T15:52:36;13.77;;;1.48;;
39452;SDS011;25154;-33.684;151.102;2022-12-18T15:57:42;18.15;;;1.95;;
39452;SDS011;25154;-33.684;151.102;2022-12-18T16:02:45;11.48;;;1.60;;
39452;SDS011;25154;-33.684;151.102;2022-12-18T16:07:47;9.82;;;1.77;;
39452;SDS011;25154;-33.684;151.102;2022-12-18T16:12:49;12.02;;;1.92;;
39452;SDS011;25154;-33.684;151.102;2022-12-18T16:17:52;9.93;;;2.13;;
39452;SDS011;25154;-33.684;151.102;2022-12-18T16:22:54;12.30;;;1.60;;
39452;SDS011;25154;-33.684;151.102;2022-12-18T16:27:57;15.63;;;2.67;;
39452;SDS011;25154;-33.684;151.102;2022-12-18T16:32:59;14.82;;;2.45;;
39452;SDS011;25154;-33.684;151.102;2022-12-18T16:38:01;13.55;;;1.80;;
39452;SDS011;25154;-33.684;151.102;2022-12-18T16:43:04;14.43;;;1.83;;
39452;SDS011;25154;-33.684;151.102;2022-12-18T16:48:06;10.55;;;1.80;;
39452;SDS011;25154;-33.684;151.102;2022-12-18T16:53:08;11.43;;;1.60;;
39452;SDS011;25154;-33.684;151.102;2022-12-18T16:58:11;14.80;;;1.85;;
39452;SDS011;25154;-33.684;151.102;2022-12-18T17:03:13;11.32;;;1.98;;
39452;SDS011;25154;-33.684;151.102;2022-12-18T17:08:15;12.50;;;1.95;;
39452;SDS011;25154;-33.684;151.102;2022-12-18T17:13:18;16.58;;;2.13;;
39452;SDS011;25154;-33.684;151.102;2022-12-18T17:18:20;15.93;;;2.40;;
39452;SDS011;25154;-33.684;151.102;2022-12-18T17:23:22;13.27;;;1.90;;
39452;SDS011;25154;-33.684;151.102;2022-12-18T17:28:25;12.20;;;1.52;;
39452;SDS011;25154;-33.684;151.102;2022-12-18T17:33:28;24.25;;;2.22;;
39452;SDS011;25154;-33.684;151.102;2022-12-18T17:38:31;10.13;;;2.00;;
39452;SDS011;25154;-33.684;151.102;2022-12-18T17:43:34;24.20;;;2.38;;
39452;SDS011;25154;-33.684;151.102;2022-12-18T17:48:39;15.02;;;2.42;;
39452;SDS011;25154;-33.684;151.102;2022-12-18T17:53:41;14.85;;;2.15;;
39452;SDS011;25154;-33.684;151.102;2022-12-18T17:58:44;11.27;;;2.90;;
39452;SDS011;25154;-33.684;151.102;2022-12-18T18:03:47;9.07;;;1.98;;
39452;SDS011;25154;-33.684;151.102;2022-12-18T18:08:50;13.65;;;2.13;;
39452;SDS011;25154;-33.684;151.102;2022-12-18T18:13:53;13.52;;;2.45;;
39452;SDS011;25154;-33.684;151.102;2022-12-18T18:19:03;15.70;;;2.00;;
39452;SDS011;25154;-33.684;151.102;2022-12-18T18:24:08;15.25;;;2.45;;
39452;SDS011;25154;-33.684;151.102;2022-12-18T18:29:17;9.38;;;2.13;;
39452;SDS011;25154;-33.684;151.102;2022-12-18T18:34:22;13.98;;;2.15;;
39452;SDS011;25154;-33.684;151.102;2022-12-18T18:39:28;12.85;;;2.20;;
39452;SDS011;25154;-33.684;151.102;2022-12-18T18:44:31;16.02;;;2.30;;
39452;SDS011;25154;-33.684;151.102;2022-12-18T18:49:34;19.85;;;2.60;;
39452;SDS011;25154;-33.684;151.102;2022-12-18T18:54:37;18.90;;;3.00;;
39452;SDS011;25154;-33.684;151.102;2022-12-18T18:59:39;15.50;;;2.13;;
39452;SDS011;25154;-33.684;151.102;2022-12-18T19:04:42;7.38;;;2.08;;
39452;SDS011;25154;-33.684;151.102;2022-12-18T19:09:44;12.88;;;1.73;;
39452;SDS011;25154;-33.684;151.102;2022-12-18T19:14:52;12.73;;;2.30;;
39452;SDS011;25154;-33.684;151.102;2022-12-18T19:19:55;10.05;;;1.98;;
39452;SDS011;25154;-33.684;151.102;2022-12-18T19:24:57;12.75;;;2.17;;
39452;SDS011;25154;-33.684;151.102;2022-12-18T19:30:00;14.02;;;2.00;;
39452;SDS011;25154;-33.684;151.102;2022-12-18T19:35:02;14.07;;;3.55;;
39452;SDS011;25154;-33.684;151.102;2022-12-18T19:40:05;13.43;;;2.67;;
39452;SDS011;25154;-33.684;151.102;2022-12-18T19:45:08;7.57;;;1.42;;
39452;SDS011;25154;-33.684;151.102;2022-12-18T19:50:10;14.02;;;1.70;;
39452;SDS011;25154;-33.684;151.102;2022-12-18T19:55:13;11.73;;;2.00;;
39452;SDS011;25154;-33.684;151.102;2022-12-18T20:00:15;16.50;;;2.90;;
39452;SDS011;25154;-33.684;151.102;2022-12-18T20:05:18;10.68;;;2.33;;
39452;SDS011;25154;-33.684;151.102;2022-12-18T20:10:24;15.07;;;2.10;;
39452;SDS011;25154;-33.684;151.102;2022-12-18T20:15:26;14.35;;;2.33;;
39452;SDS011;25154;-33.684;151.102;2022-12-18T20:20:29;13.95;;;1.90;;
39452;SDS011;25154;-33.684;151.102;2022-12-18T20:25:31;13.02;;;2.03;;
39452;SDS011;25154;-33.684;151.102;2022-12-18T20:30:35;11.85;;;2.35;;
39452;SDS011;25154;-33.684;151.102;2022-12-18T20:35:37;14.23;;;1.85;;
39452;SDS011;25154;-33.684;151.102;2022-12-18T20:40:40;15.13;;;1.90;;
39452;SDS011;25154;-33.684;151.102;2022-12-18T20:45:43;13.07;;;3.08;;
39452;SDS011;25154;-33.684;151.102;2022-12-18T20:50:45;10.18;;;1.83;;
39452;SDS011;25154;-33.684;151.102;2022-12-18T20:56:11;13.93;;;1.92;;
39452;SDS011;25154;-33.684;151.102;2022-12-18T21:01:19;10.48;;;1.95;;
39452;SDS011;25154;-33.684;151.102;2022-12-18T21:06:23;13.63;;;1.83;;
39452;SDS011;25154;-33.684;151.102;2022-12-18T21:11:27;13.68;;;1.67;;
39452;SDS011;25154;-33.684;151.102;2022-12-18T21:16:49;11.32;;;1.60;;
39452;SDS011;25154;-33.684;151.102;2022-12-18T21:21:56;10.48;;;1.45;;
39452;SDS011;25154;-33.684;151.102;2022-12-18T21:26:58;11.90;;;2.47;;
39452;SDS011;25154;-33.684;151.102;2022-12-18T21:32:02;8.45;;;1.35;;
39452;SDS011;25154;-33.684;151.102;2022-12-18T21:37:04;16.98;;;1.95;;
39452;SDS011;25154;-33.684;151.102;2022-12-18T21:42:08;11.10;;;2.58;;
39452;SDS011;25154;-33.684;151.102;2022-12-18T21:47:41;14.77;;;2.15;;
39452;SDS011;25154;-33.684;151.102;2022-12-18T21:52:44;9.27;;;1.83;;
39452;SDS011;25154;-33.684;151.102;2022-12-18T21:57:46;11.68;;;1.48;;
39452;SDS011;25154;-33.684;151.102;2022-12-18T22:02:49;10.27;;;2.00;;
39452;SDS011;25154;-33.684;151.102;2022-12-18T22:07:53;13.70;;;1.98;;
39452;SDS011;25154;-33.684;151.102;2022-12-18T22:13:03;16.90;;;2.67;;
39452;SDS011;25154;-33.684;151.102;2022-12-18T22:18:06;12.65;;;2.08;;
39452;SDS011;25154;-33.684;151.102;2022-12-18T22:23:09;12.40;;;2.10;;
39452;SDS011;25154;-33.684;151.102;2022-12-18T22:28:12;13.50;;;2.67;;
39452;SDS011;25154;-33.684;151.102;2022-12-18T22:33:35;12.60;;;1.88;;
39452;SDS011;25154;-33.684;151.102;2022-12-18T22:38:38;9.43;;;2.25;;
39452;SDS011;25154;-33.684;151.102;2022-12-18T22:43:40;18.17;;;2.53;;
39452;SDS011;25154;-33.684;151.102;2022-12-18T22:48:44;12.07;;;2.67;;
39452;SDS011;25154;-33.684;151.102;2022-12-18T22:53:47;10.35;;;2.10;;
39452;SDS011;25154;-33.684;151.102;2022-12-18T22:58:50;13.05;;;1.88;;
39452;SDS011;25154;-33.684;151.102;2022-12-18T23:03:53;9.95;;;1.95;;
39452;SDS011;25154;-33.684;151.102;2022-12-18T23:08:56;9.88;;;1.73;;
39452;SDS011;25154;-33.684;151.102;2022-12-18T23:14:16;10.25;;;2.45;;
39452;SDS011;25154;-33.684;151.102;2022-12-18T23:19:22;8.35;;;1.85;;
39452;SDS011;25154;-33.684;151.102;2022-12-18T23:24:25;13.95;;;1.75;;
39452;SDS011;25154;-33.684;151.102;2022-12-18T23:29:28;6.05;;;1.38;;
39452;SDS011;25154;-33.684;151.102;2022-12-18T23:34:32;8.38;;;1.40;;
39452;SDS011;25154;-33.684;151.102;2022-12-18T23:39:35;10.88;;;2.13;;
39452;SDS011;25154;-33.684;151.102;2022-12-18T23:44:38;10.75;;;1.98;;
39452;SDS011;25154;-33.684;151.102;2022-12-18T23:49:41;9.50;;;1.77;;
39452;SDS011;25154;-33.684;151.102;2022-12-18T23:54:44;14.60;;;2.17;;
39452;SDS011;25154;-33.684;151.102;2022-12-18T23:59:47;6.38;;;1.50;;
